(°C)
(°C)
დას.
დას.
დას.
დას.
დას.
დჩდ
ჩდ
(კმ/სთ)
16-27
16-27
15-26
14-24
13-23
14-22
15-24
(მმ)
0
0
0
0
0
0
0
(%)
15
2
8
14
8
8
1

მზის სიმაღლე

/ -26.3°
sun-icon
UV 0
07:07
17:05
მთვარე ბოლო კვარტალში (266°)
22:14
14:33

METAR 51.82°ჩრ. 39.23°აღმ. (UUOO)-თვის

დრო პირობები ტემპერატურა/
ნამი
ქარი ხილვადობა ამინდი ღრუბლები წნევა ცვლილება დაუმუშავებელი
IFR 9°C / 8°C 280º 8kt >10km - Overcast 600ft 1017 No Significant change. Runway 30: Wet or puddles, 51-100% contamination with 1mm, friction coefficient 0.55. UUOO 281630Z 28004MPS 9999 OVC006 09/08 Q1017 R30/290155 NOSIG RMK QFE749
IFR 8°C / 8°C 260º 8kt >10km - Overcast 500ft 1017 No Significant change. Runway 30: Wet or puddles, 51-100% contamination with 1mm, friction coefficient 0.55. UUOO 281600Z 26004MPS 9999 OVC005 08/08 Q1017 R30/290155 NOSIG RMK QFE749
IFR 8°C / 7°C 260º 8kt >10km - Overcast 600ft 1017 No Significant change. Runway 30: Wet or puddles, 51-100% contamination with 1mm, friction coefficient 0.55. UUOO 281530Z 26004MPS 9999 OVC006 08/07 Q1017 R30/290155 NOSIG RMK QFE749
IFR 8°C / 7°C 270º 10kt 9000m Light Rain 1.00mm precipitation Vertical Visibility of 0ft. 1016 No Significant change. Runway 30: Wet or puddles, 51-100% contamination with 1mm, friction coefficient 0.55. UUOO 281500Z 27005MPS 9000 -RA OVC006 08/07 Q1016 R30/290155 NOSIG RMK QFE749
IFR 8°C / 7°C 260º 10kt 9000m Light Rain 1.00mm precipitation Vertical Visibility of 0ft. 1016 No Significant change. Runway 30: Wet or puddles, 51-100% contamination with 1mm, friction coefficient 0.55. UUOO 281430Z 26005MPS 9000 -RA OVC006 08/07 Q1016 R30/290155 NOSIG RMK QFE748
LIFR 8°C / 7°C 260º 10kt 3700m Light Rain Mist 1.00mm precipitation Vertical Visibility of 0ft. 1016 Temporary: Visibility 1000. Mist . RMK QFE748 . Runway 30: Wet or puddles, 51-100% contamination with 1mm, friction coefficient 0.55. UUOO 281400Z 26005MPS 3700 -RA BR OVC003 08/07 Q1016 R30/290155 TEMPO 1000 BR RMK QFE748
LIFR 7°C / 7°C 250º 10kt 2300m Light Rain Mist 1.00mm precipitation Vertical Visibility of 0ft. 1016 Temporary: Visibility 1000. Mist . RMK QBB060 QFE748 . Runway 30: Wet or puddles, 51-100% contamination with 1mm, friction coefficient 0.55. UUOO 281330Z 25005MPS 2300 -RA BR OVC002 07/07 Q1016 R30/290155 TEMPO 1000 BR RMK QBB060 QFE748
IFR 7°C / 6°C 260º 10kt 5000m Mist Vertical Visibility of 0ft. 1016 No Significant change. Runway 30: Wet or puddles, 51-100% contamination with 1mm, friction coefficient 0.55. UUOO 281300Z 26005MPS 5000 BR OVC005 07/06 Q1016 R30/290155 NOSIG RMK QFE748
IFR 7°C / 6°C 250º 10kt 6000m Light Rain 1.00mm precipitation Vertical Visibility of 0ft. 1016 No Significant change. Runway 30: Wet or puddles, 51-100% contamination with 1mm, friction coefficient 0.55. UUOO 281230Z 25005MPS 6000 -RA OVC005 07/06 Q1016 R30/290155 NOSIG RMK QFE748
LIFR 7°C / 6°C 250º 12kt 3200m Light Rain Mist 1.00mm precipitation Vertical Visibility of 0ft. 1015 Temporary: Visibility 1400. Mist . RMK QBB060 QFE748 . Runway 30: Wet or puddles, 51-100% contamination with 1mm, friction coefficient 0.55. UUOO 281200Z 25006MPS 3200 -RA BR OVC002 07/06 Q1015 R30/290155 TEMPO 1400 BR RMK QBB060 QFE748
LIFR 7°C / 6°C 250º 10kt 2500m Light Drizzle Mist 0.20mm precipitation Vertical Visibility of 0ft. 1016 Temporary: Visibility 1400. Mist . RMK QBB070 QFE748 . Runway 30: Wet or puddles, 51-100% contamination with 1mm, friction coefficient 0.55. UUOO 281130Z 25005MPS 2500 -DZ BR OVC002 07/06 Q1016 R30/290155 TEMPO 1400 BR RMK QBB070 QFE748
LIFR 7°C / 6°C 240º 10kt 2700m Light Drizzle Mist 0.20mm precipitation Vertical Visibility of 0ft. 1016 Temporary: Visibility 1400. Mist . RMK QFE748 . Runway 30: Wet or puddles, 51-100% contamination with 1mm, friction coefficient 0.55. UUOO 281100Z 24005MPS 2700 -DZ BR OVC003 07/06 Q1016 R30/290155 TEMPO 1400 BR RMK QFE748
IFR 7°C / 6°C 240º 10kt 4000m Light Rain Mist 1.00mm precipitation Vertical Visibility of 0ft. 1016 Temporary: Visibility 1400. Mist . Overcast 300ft. RMK QFE748 . Runway 30: Wet or puddles, 51-100% contamination with 1mm, friction coefficient 0.55. UUOO 281030Z 24005MPS 4000 -RA BR OVC005 07/06 Q1016 R30/290155 TEMPO 1400 BR OVC003 RMK QFE748
IFR 7°C / 5°C 230º 10kt 3400m Light Rain Mist 1.00mm precipitation Vertical Visibility of 0ft. 1016 Temporary: Visibility 1400. Mist . Overcast 400ft. RMK QFE749 . Runway 30: Wet or puddles, 51-100% contamination with 1mm, friction coefficient 0.55. UUOO 281000Z 23005MPS 3400 -RA BR OVC007 07/05 Q1016 R30/290155 TEMPO 1400 BR OVC004 RMK QFE749
MVFR 7°C / 5°C 230º 8kt Gust 17kt 9000m Light Rain 1.00mm precipitation Vertical Visibility of 0ft. 1017 No Significant change. Runway 30: Wet or puddles, 51-100% contamination with 1mm, friction coefficient 0.55. UUOO 280930Z 23004G09MPS 9000 -RA OVC011 07/05 Q1017 R30/290155 NOSIG RMK QFE749
MVFR 8°C / 5°C 220º 8kt >10km Light Rain 1.00mm precipitation Vertical Visibility of 0ft. 1017 No Significant change. Runway 30: Wet or puddles, 51-100% contamination with 1mm, friction coefficient 0.55. UUOO 280900Z 22004MPS 9999 -RA OVC021 08/05 Q1017 R30/290155 NOSIG RMK QFE749
VFR 7°C / 4°C 230º 8kt >10km Light Rain 1.00mm precipitation Vertical Visibility of 0ft. 1017 No Significant change. Runway 30: Wet or puddles, 51-100% contamination with 1mm, friction coefficient 0.55. UUOO 280830Z 23004MPS 9999 -RA OVC031 07/04 Q1017 R30/290155 NOSIG RMK QFE749
VFR 7°C / 4°C 230º 8kt >10km Light Rain 1.00mm precipitation Vertical Visibility of 0ft. 1018 No Significant change. Runway 30: Wet or puddles, 51-100% contamination with 1mm, friction coefficient 0.55. UUOO 280800Z 23004MPS 9999 -RA OVC046 07/04 Q1018 R30/290155 NOSIG RMK QFE750
VFR 6°C / 4°C 230º 8kt >10km Light Rain 1.00mm precipitation Vertical Visibility of 0ft. 1018 No Significant change. Runway 30: Clear and dry, 1-10% contamination with <1mm, friction coefficient 0.70. UUOO 280730Z 23004MPS 9999 -RA OVC046 06/04 Q1018 R30/010070 NOSIG RMK QFE750
VFR 6°C / 3°C 230º 8kt >10km - Clouds and Visibility OK 1018 No Significant change. Runway 30: Clear and dry, 1-10% contamination with <1mm, friction coefficient 0.70. UUOO 280700Z 23004MPS CAVOK 06/03 Q1018 R30/010070 NOSIG RMK QFE750
VFR 6°C / 3°C 230º variable 200º to 300º 6kt >10km - Clouds and Visibility OK 1019 No Significant change. Runway 30: Clear and dry, 1-10% contamination with <1mm, friction coefficient 0.70. UUOO 280630Z 23003MPS 200V300 CAVOK 06/03 Q1019 R30/010070 NOSIG RMK QFE750
VFR 5°C / 3°C 230º 6kt >10km - Clouds and Visibility OK 1019 No Significant change. Runway 30: Clear and dry, 1-10% contamination with <1mm, friction coefficient 0.70. UUOO 280600Z 23003MPS CAVOK 05/03 Q1019 R30/010070 NOSIG RMK QFE750
VFR 4°C / 3°C 220º 8kt >10km - Clouds and Visibility OK 1019 No Significant change. Runway 30: Clear and dry, 1-10% contamination with <1mm, friction coefficient 0.70. UUOO 280530Z 22004MPS CAVOK 04/03 Q1019 R30/010070 NOSIG RMK QFE751
VFR 4°C / 2°C 230º 6kt 9000m - Clear 1019 No Significant change. Runway 30: Clear and dry, 1-10% contamination with <1mm, friction coefficient 0.70. UUOO 280500Z 23003MPS 9000 NSC 04/02 Q1019 R30/010070 NOSIG RMK QFE751

IFR

9°C / 8°C

[მეტი]
ქარი 280º 8kt
ხილვადობა >10km
ამინდი -
ღრუბლები Overcast 600ft
წნევა 1017
ცვლილება No Significant change. Runway 30: Wet or puddles, 51-100% contamination with 1mm, friction coefficient 0.55.
დაუმუშავებელი UUOO 281630Z 28004MPS 9999 OVC006 09/08 Q1017 R30/290155 NOSIG RMK QFE749

IFR

8°C / 8°C

[მეტი]
ქარი 260º 8kt
ხილვადობა >10km
ამინდი -
ღრუბლები Overcast 500ft
წნევა 1017
ცვლილება No Significant change. Runway 30: Wet or puddles, 51-100% contamination with 1mm, friction coefficient 0.55.
დაუმუშავებელი UUOO 281600Z 26004MPS 9999 OVC005 08/08 Q1017 R30/290155 NOSIG RMK QFE749

IFR

8°C / 7°C

[მეტი]
ქარი 260º 8kt
ხილვადობა >10km
ამინდი -
ღრუბლები Overcast 600ft
წნევა 1017
ცვლილება No Significant change. Runway 30: Wet or puddles, 51-100% contamination with 1mm, friction coefficient 0.55.
დაუმუშავებელი UUOO 281530Z 26004MPS 9999 OVC006 08/07 Q1017 R30/290155 NOSIG RMK QFE749

IFR

8°C / 7°C

[მეტი]
ქარი 270º 10kt
ხილვადობა 9000m
ამინდი Light Rain 1.00mm precipitation
ღრუბლები Vertical Visibility of 0ft.
წნევა 1016
ცვლილება No Significant change. Runway 30: Wet or puddles, 51-100% contamination with 1mm, friction coefficient 0.55.
დაუმუშავებელი UUOO 281500Z 27005MPS 9000 -RA OVC006 08/07 Q1016 R30/290155 NOSIG RMK QFE749

IFR

8°C / 7°C

[მეტი]
ქარი 260º 10kt
ხილვადობა 9000m
ამინდი Light Rain 1.00mm precipitation
ღრუბლები Vertical Visibility of 0ft.
წნევა 1016
ცვლილება No Significant change. Runway 30: Wet or puddles, 51-100% contamination with 1mm, friction coefficient 0.55.
დაუმუშავებელი UUOO 281430Z 26005MPS 9000 -RA OVC006 08/07 Q1016 R30/290155 NOSIG RMK QFE748

LIFR

8°C / 7°C

[მეტი]
ქარი 260º 10kt
ხილვადობა 3700m
ამინდი Light Rain Mist 1.00mm precipitation
ღრუბლები Vertical Visibility of 0ft.
წნევა 1016
ცვლილება Temporary: Visibility 1000. Mist . RMK QFE748 . Runway 30: Wet or puddles, 51-100% contamination with 1mm, friction coefficient 0.55.
დაუმუშავებელი UUOO 281400Z 26005MPS 3700 -RA BR OVC003 08/07 Q1016 R30/290155 TEMPO 1000 BR RMK QFE748

LIFR

7°C / 7°C

[მეტი]
ქარი 250º 10kt
ხილვადობა 2300m
ამინდი Light Rain Mist 1.00mm precipitation
ღრუბლები Vertical Visibility of 0ft.
წნევა 1016
ცვლილება Temporary: Visibility 1000. Mist . RMK QBB060 QFE748 . Runway 30: Wet or puddles, 51-100% contamination with 1mm, friction coefficient 0.55.
დაუმუშავებელი UUOO 281330Z 25005MPS 2300 -RA BR OVC002 07/07 Q1016 R30/290155 TEMPO 1000 BR RMK QBB060 QFE748

IFR

7°C / 6°C

[მეტი]
ქარი 260º 10kt
ხილვადობა 5000m
ამინდი Mist
ღრუბლები Vertical Visibility of 0ft.
წნევა 1016
ცვლილება No Significant change. Runway 30: Wet or puddles, 51-100% contamination with 1mm, friction coefficient 0.55.
დაუმუშავებელი UUOO 281300Z 26005MPS 5000 BR OVC005 07/06 Q1016 R30/290155 NOSIG RMK QFE748

IFR

7°C / 6°C

[მეტი]
ქარი 250º 10kt
ხილვადობა 6000m
ამინდი Light Rain 1.00mm precipitation
ღრუბლები Vertical Visibility of 0ft.
წნევა 1016
ცვლილება No Significant change. Runway 30: Wet or puddles, 51-100% contamination with 1mm, friction coefficient 0.55.
დაუმუშავებელი UUOO 281230Z 25005MPS 6000 -RA OVC005 07/06 Q1016 R30/290155 NOSIG RMK QFE748

LIFR

7°C / 6°C

[მეტი]
ქარი 250º 12kt
ხილვადობა 3200m
ამინდი Light Rain Mist 1.00mm precipitation
ღრუბლები Vertical Visibility of 0ft.
წნევა 1015
ცვლილება Temporary: Visibility 1400. Mist . RMK QBB060 QFE748 . Runway 30: Wet or puddles, 51-100% contamination with 1mm, friction coefficient 0.55.
დაუმუშავებელი UUOO 281200Z 25006MPS 3200 -RA BR OVC002 07/06 Q1015 R30/290155 TEMPO 1400 BR RMK QBB060 QFE748

LIFR

7°C / 6°C

[მეტი]
ქარი 250º 10kt
ხილვადობა 2500m
ამინდი Light Drizzle Mist 0.20mm precipitation
ღრუბლები Vertical Visibility of 0ft.
წნევა 1016
ცვლილება Temporary: Visibility 1400. Mist . RMK QBB070 QFE748 . Runway 30: Wet or puddles, 51-100% contamination with 1mm, friction coefficient 0.55.
დაუმუშავებელი UUOO 281130Z 25005MPS 2500 -DZ BR OVC002 07/06 Q1016 R30/290155 TEMPO 1400 BR RMK QBB070 QFE748

LIFR

7°C / 6°C

[მეტი]
ქარი 240º 10kt
ხილვადობა 2700m
ამინდი Light Drizzle Mist 0.20mm precipitation
ღრუბლები Vertical Visibility of 0ft.
წნევა 1016
ცვლილება Temporary: Visibility 1400. Mist . RMK QFE748 . Runway 30: Wet or puddles, 51-100% contamination with 1mm, friction coefficient 0.55.
დაუმუშავებელი UUOO 281100Z 24005MPS 2700 -DZ BR OVC003 07/06 Q1016 R30/290155 TEMPO 1400 BR RMK QFE748

IFR

7°C / 6°C

[მეტი]
ქარი 240º 10kt
ხილვადობა 4000m
ამინდი Light Rain Mist 1.00mm precipitation
ღრუბლები Vertical Visibility of 0ft.
წნევა 1016
ცვლილება Temporary: Visibility 1400. Mist . Overcast 300ft. RMK QFE748 . Runway 30: Wet or puddles, 51-100% contamination with 1mm, friction coefficient 0.55.
დაუმუშავებელი UUOO 281030Z 24005MPS 4000 -RA BR OVC005 07/06 Q1016 R30/290155 TEMPO 1400 BR OVC003 RMK QFE748

IFR

7°C / 5°C

[მეტი]
ქარი 230º 10kt
ხილვადობა 3400m
ამინდი Light Rain Mist 1.00mm precipitation
ღრუბლები Vertical Visibility of 0ft.
წნევა 1016
ცვლილება Temporary: Visibility 1400. Mist . Overcast 400ft. RMK QFE749 . Runway 30: Wet or puddles, 51-100% contamination with 1mm, friction coefficient 0.55.
დაუმუშავებელი UUOO 281000Z 23005MPS 3400 -RA BR OVC007 07/05 Q1016 R30/290155 TEMPO 1400 BR OVC004 RMK QFE749

MVFR

7°C / 5°C

[მეტი]
ქარი 230º 8kt Gust 17kt
ხილვადობა 9000m
ამინდი Light Rain 1.00mm precipitation
ღრუბლები Vertical Visibility of 0ft.
წნევა 1017
ცვლილება No Significant change. Runway 30: Wet or puddles, 51-100% contamination with 1mm, friction coefficient 0.55.
დაუმუშავებელი UUOO 280930Z 23004G09MPS 9000 -RA OVC011 07/05 Q1017 R30/290155 NOSIG RMK QFE749

MVFR

8°C / 5°C

[მეტი]
ქარი 220º 8kt
ხილვადობა >10km
ამინდი Light Rain 1.00mm precipitation
ღრუბლები Vertical Visibility of 0ft.
წნევა 1017
ცვლილება No Significant change. Runway 30: Wet or puddles, 51-100% contamination with 1mm, friction coefficient 0.55.
დაუმუშავებელი UUOO 280900Z 22004MPS 9999 -RA OVC021 08/05 Q1017 R30/290155 NOSIG RMK QFE749

VFR

7°C / 4°C

[მეტი]
ქარი 230º 8kt
ხილვადობა >10km
ამინდი Light Rain 1.00mm precipitation
ღრუბლები Vertical Visibility of 0ft.
წნევა 1017
ცვლილება No Significant change. Runway 30: Wet or puddles, 51-100% contamination with 1mm, friction coefficient 0.55.
დაუმუშავებელი UUOO 280830Z 23004MPS 9999 -RA OVC031 07/04 Q1017 R30/290155 NOSIG RMK QFE749

VFR

7°C / 4°C

[მეტი]
ქარი 230º 8kt
ხილვადობა >10km
ამინდი Light Rain 1.00mm precipitation
ღრუბლები Vertical Visibility of 0ft.
წნევა 1018
ცვლილება No Significant change. Runway 30: Wet or puddles, 51-100% contamination with 1mm, friction coefficient 0.55.
დაუმუშავებელი UUOO 280800Z 23004MPS 9999 -RA OVC046 07/04 Q1018 R30/290155 NOSIG RMK QFE750

VFR

6°C / 4°C

[მეტი]
ქარი 230º 8kt
ხილვადობა >10km
ამინდი Light Rain 1.00mm precipitation
ღრუბლები Vertical Visibility of 0ft.
წნევა 1018
ცვლილება No Significant change. Runway 30: Clear and dry, 1-10% contamination with <1mm, friction coefficient 0.70.
დაუმუშავებელი UUOO 280730Z 23004MPS 9999 -RA OVC046 06/04 Q1018 R30/010070 NOSIG RMK QFE750

VFR

6°C / 3°C

[მეტი]
ქარი 230º 8kt
ხილვადობა >10km
ამინდი -
ღრუბლები Clouds and Visibility OK
წნევა 1018
ცვლილება No Significant change. Runway 30: Clear and dry, 1-10% contamination with <1mm, friction coefficient 0.70.
დაუმუშავებელი UUOO 280700Z 23004MPS CAVOK 06/03 Q1018 R30/010070 NOSIG RMK QFE750

VFR

6°C / 3°C

[მეტი]
ქარი 230º variable 200º to 300º 6kt
ხილვადობა >10km
ამინდი -
ღრუბლები Clouds and Visibility OK
წნევა 1019
ცვლილება No Significant change. Runway 30: Clear and dry, 1-10% contamination with <1mm, friction coefficient 0.70.
დაუმუშავებელი UUOO 280630Z 23003MPS 200V300 CAVOK 06/03 Q1019 R30/010070 NOSIG RMK QFE750

VFR

5°C / 3°C

[მეტი]
ქარი 230º 6kt
ხილვადობა >10km
ამინდი -
ღრუბლები Clouds and Visibility OK
წნევა 1019
ცვლილება No Significant change. Runway 30: Clear and dry, 1-10% contamination with <1mm, friction coefficient 0.70.
დაუმუშავებელი UUOO 280600Z 23003MPS CAVOK 05/03 Q1019 R30/010070 NOSIG RMK QFE750

VFR

4°C / 3°C

[მეტი]
ქარი 220º 8kt
ხილვადობა >10km
ამინდი -
ღრუბლები Clouds and Visibility OK
წნევა 1019
ცვლილება No Significant change. Runway 30: Clear and dry, 1-10% contamination with <1mm, friction coefficient 0.70.
დაუმუშავებელი UUOO 280530Z 22004MPS CAVOK 04/03 Q1019 R30/010070 NOSIG RMK QFE751

VFR

4°C / 2°C

[მეტი]
ქარი 230º 6kt
ხილვადობა 9000m
ამინდი -
ღრუბლები Clear
წნევა 1019
ცვლილება No Significant change. Runway 30: Clear and dry, 1-10% contamination with <1mm, friction coefficient 0.70.
დაუმუშავებელი UUOO 280500Z 23003MPS 9000 NSC 04/02 Q1019 R30/010070 NOSIG RMK QFE751

TAF 51.82°ჩრ. 39.23°აღმ. (UUOO)-თვის

From till


From till Wind 260º 10kt. Visibility 3500m. Light Rain Mist . Overcast 700ft.
Temporarly from till Broken Clouds 300ft.

დაუმუშავებელი: TAF UUOO 281400Z 2815/2824 26005MPS 3500 -RA BR OVC007 TEMPO 2815/2821 BKN003

მიმდინარე სატელიტისა და წვიმის სურათები 51.82°ჩრ. 39.23°აღმ.-თვის

ლოკაციის მარკერი დაყენებყლია 51.82°ჩრ. 39.23°აღმ.ზე. [მეტი]

რეალურ დროში სატელიტური სურათი აერთიანებს ხილულ სინათლეს დღისით ღამის განმავლობაში ინფრაწითელ გამოსხივებასთან ერთად. ღამით, სურათი არ არის მუქი, რადგან ინფრაწითელ გამოსხივებას შეუძლია ტემპერატურის განსხვავებების დადგენა. სამწუხაროდ, დაბალი ღრუბლები და ნისლი ძნელია განასხვავონ მიწის ტემპერატურისგან და, შესაბამისად, ისინი შეიძლება თითქმის არ ჩანდეს ღამით. Meteosat სატელიტური გამოსახულება ევროპისთვის ახლდება რეალურ დროში ყოველ 5 წუთში. GOES-16/GOES-17 (ჩრდილოეთი და სამხრეთ ამერიკა) და ჰიმავარი (აზია) გამოსახულებები ახლდება ყოველ 10 წუთში.

საავტორო უფლებები 2021 EUMETSAT / meteoblue. / საავტორო უფლებები 2021 meteoblue

რადარის და ნალექების მაჩვენებელი 51.82°ჩრ. 39.23°აღმ. -თვის

გაწურეთ
Მსუბუქი
ზომიერი
Მძიმე
Ძალიან მძიმე
სეტყვა

მდებარეობის მარკერი მოთავსებულია 51.82°ჩრ. 39.23°აღმ. -ზე. ეს ანიმაცია აჩვენებს ნალექების სარადარო მონაცემებს როგორც ბოლო საათის განმავლობაში, ასევე 1h პროგნოზს. წვიმა ან თოვლის მსუბუქი ვარდნა შეიძლება უჩინარი იყოს რადარისთვის. ნალექების ინტენსივობა არის კოდირებული ფერით, დაწყებული ღია ლურჯიდან ნარინჯისფერამდე.